createdAt,value
2018-01-25T00:00:16.032Z,2.00
2018-01-25T00:02:44.835Z,1.90
2018-01-25T00:05:13.629Z,1.50
2018-01-25T00:07:41.678Z,1.80
2018-01-25T00:10:09.728Z,1.90
2018-01-25T00:12:37.768Z,2.30
2018-01-25T00:15:05.838Z,1.75
2018-01-25T00:17:34.053Z,2.12
2018-01-25T00:20:02.055Z,2.08
2018-01-25T00:22:31.819Z,1.67
2018-01-25T00:24:59.868Z,1.50
2018-01-25T00:27:27.896Z,1.90
2018-01-25T00:29:55.939Z,1.65
2018-01-25T00:32:23.992Z,2.00
2018-01-25T00:34:52.023Z,2.15
2018-01-25T00:37:20.093Z,2.20
2018-01-25T00:39:48.141Z,2.83
2018-01-25T00:42:16.164Z,1.85
2018-01-25T00:44:44.207Z,2.10
2018-01-25T00:47:12.264Z,2.30
2018-01-25T00:49:40.300Z,1.80
2018-01-25T00:52:09.112Z,1.55
2018-01-25T00:54:37.160Z,1.90
2018-01-25T00:57:05.200Z,1.80
2018-01-25T00:59:33.273Z,1.75
2018-01-25T01:02:01.340Z,2.03
2018-01-25T01:04:29.379Z,1.92
2018-01-25T01:06:57.432Z,2.05
2018-01-25T01:09:25.484Z,1.73
2018-01-25T01:11:54.276Z,2.00
2018-01-25T01:14:23.147Z,1.98
2018-01-25T01:16:51.159Z,1.60
2018-01-25T01:19:19.953Z,1.50
2018-01-25T01:21:47.996Z,1.80
2018-01-25T01:24:16.032Z,1.30
2018-01-25T01:26:44.852Z,1.90
2018-01-25T01:29:12.889Z,1.65
2018-01-25T01:31:40.940Z,1.62
2018-01-25T01:34:08.969Z,1.70
2018-01-25T01:36:37.020Z,2.10
2018-01-25T01:39:05.076Z,1.60
2018-01-25T01:41:33.111Z,1.65
2018-01-25T01:44:01.404Z,2.03
2018-01-25T01:46:30.176Z,1.65
2018-01-25T01:48:58.167Z,1.87
2018-01-25T01:51:26.164Z,2.10
2018-01-25T01:53:54.935Z,2.00
2018-01-25T01:56:22.927Z,1.98
2018-01-25T01:58:50.924Z,2.28
2018-01-25T02:01:18.924Z,2.40
2018-01-25T02:03:47.684Z,2.03
2018-01-25T02:06:15.685Z,2.05
2018-01-25T02:08:43.688Z,2.10
2018-01-25T02:11:12.440Z,2.67
2018-01-25T02:13:40.439Z,2.17
2018-01-25T02:16:08.440Z,2.45
2018-01-25T02:18:36.436Z,1.65
2018-01-25T02:21:05.204Z,2.72
2018-01-25T02:23:33.226Z,4.25
2018-01-25T02:26:01.243Z,1.98
2018-01-25T02:28:29.582Z,1.92
2018-01-25T02:30:57.551Z,2.00
2018-01-25T02:33:25.535Z,2.10
2018-01-25T02:35:53.536Z,1.98
2018-01-25T02:38:22.295Z,2.12
2018-01-25T02:40:50.283Z,2.05
2018-01-25T02:43:18.285Z,2.30
2018-01-25T02:45:46.283Z,1.60
2018-01-25T02:48:15.045Z,2.30
2018-01-25T02:50:43.044Z,1.90
2018-01-25T02:53:11.044Z,1.87
2018-01-25T02:55:39.024Z,1.52
2018-01-25T02:58:07.020Z,1.90
2018-01-25T03:00:35.796Z,1.95
2018-01-25T03:03:03.821Z,1.70
2018-01-25T03:05:31.831Z,2.75
2018-01-25T03:07:59.840Z,2.17
2018-01-25T03:10:27.816Z,2.10
2018-01-25T03:12:55.826Z,2.22
2018-01-25T03:15:24.592Z,1.70
2018-01-25T03:17:52.579Z,2.05
2018-01-25T03:20:20.588Z,1.80
2018-01-25T03:22:48.583Z,2.05
2018-01-25T03:25:17.338Z,1.77
2018-01-25T03:27:45.332Z,1.75
2018-01-25T03:30:13.332Z,1.85
2018-01-25T03:32:41.328Z,2.28
2018-01-25T03:35:10.088Z,2.15
2018-01-25T03:37:38.088Z,1.83
2018-01-25T03:40:06.081Z,1.35
2018-01-25T03:42:34.076Z,1.75
2018-01-25T03:45:02.855Z,2.15
2018-01-25T03:47:30.839Z,2.40
2018-01-25T03:49:58.842Z,1.65
2018-01-25T03:52:27.599Z,2.45
2018-01-25T03:54:55.595Z,1.83
2018-01-25T03:57:23.596Z,2.33
2018-01-25T03:59:51.595Z,2.05
2018-01-25T04:02:20.347Z,1.50
2018-01-25T04:04:48.351Z,1.80
2018-01-25T04:07:16.359Z,1.48
2018-01-25T04:09:45.099Z,1.70
2018-01-25T04:12:13.092Z,2.33
2018-01-25T04:14:41.091Z,2.30
2018-01-25T04:17:09.089Z,2.03
2018-01-25T04:19:37.091Z,2.10
2018-01-25T04:22:05.864Z,2.67
2018-01-25T04:24:34.618Z,1.95
2018-01-25T04:27:02.626Z,1.80
2018-01-25T04:29:30.660Z,2.60
2018-01-25T04:31:59.406Z,2.10
2018-01-25T04:34:27.408Z,2.70
2018-01-25T04:36:55.679Z,3.00
2018-01-25T04:39:23.662Z,2.00
2018-01-25T04:41:51.664Z,2.55
2018-01-25T04:44:19.659Z,2.05
2018-01-25T04:46:47.655Z,2.62
2018-01-25T04:49:16.415Z,2.12
2018-01-25T04:51:44.432Z,1.58
2018-01-25T04:54:13.179Z,2.40
2018-01-25T04:56:41.183Z,2.33
2018-01-25T04:59:09.187Z,2.55
2018-01-25T05:01:37.172Z,2.42
2018-01-25T05:04:05.171Z,2.47
2018-01-25T05:06:33.941Z,2.62
2018-01-25T05:09:01.928Z,2.78
2018-01-25T05:11:29.931Z,1.85
2018-01-25T05:13:58.704Z,2.20
2018-01-25T05:16:26.692Z,2.65
2018-01-25T05:18:54.688Z,2.30
2018-01-25T05:21:22.696Z,2.70
2018-01-25T05:23:51.440Z,2.33
2018-01-25T05:26:19.436Z,2.50
2018-01-25T05:28:47.438Z,2.37
2018-01-25T05:31:15.420Z,2.58
2018-01-25T05:33:43.424Z,2.42
2018-01-25T05:36:12.195Z,2.40
2018-01-25T05:38:40.171Z,2.47
2018-01-25T05:41:08.171Z,2.50
2018-01-25T05:43:36.184Z,2.78
2018-01-25T05:46:04.179Z,2.85
2018-01-25T05:48:32.193Z,2.55
2018-01-25T05:51:00.200Z,2.87
2018-01-25T05:53:29.107Z,2.45
2018-01-25T05:55:57.112Z,2.80
2018-01-25T05:58:25.120Z,2.45
2018-01-25T06:00:53.106Z,2.90
2018-01-25T06:03:21.108Z,2.22
2018-01-25T06:05:49.112Z,2.30
2018-01-25T06:08:17.099Z,2.60
2018-01-25T06:10:45.108Z,2.30
2018-01-25T06:13:13.116Z,2.70
2018-01-25T06:15:41.099Z,2.17
2018-01-25T06:18:09.108Z,2.55
2018-01-25T06:20:37.091Z,2.50
2018-01-25T06:23:05.088Z,2.47
2018-01-25T06:25:33.096Z,2.80
2018-01-25T06:28:01.878Z,3.10
2018-01-25T06:30:29.879Z,2.20
2018-01-25T06:32:58.635Z,2.78
2018-01-25T06:35:26.643Z,3.03
2018-01-25T06:37:55.416Z,2.47
2018-01-25T06:40:23.405Z,2.50
2018-01-25T06:42:51.629Z,2.45
2018-01-25T06:45:19.576Z,1.75
2018-01-25T06:47:47.581Z,2.40
2018-01-25T06:50:15.579Z,2.50
2018-01-25T06:52:44.335Z,2.60
2018-01-25T06:55:12.341Z,2.20
2018-01-25T06:57:41.839Z,2.90
2018-01-25T07:00:09.824Z,2.58
2018-01-25T07:02:37.820Z,2.45
2018-01-25T07:05:05.840Z,2.00
2018-01-25T07:07:34.584Z,2.28
2018-01-25T07:10:02.599Z,2.30
2018-01-25T07:12:30.608Z,1.85
2018-01-25T07:14:58.591Z,2.85
2018-01-25T07:17:26.584Z,2.95
2018-01-25T07:19:54.575Z,3.20
2018-01-25T07:22:22.559Z,2.30
2018-01-25T07:24:50.575Z,2.15
2018-01-25T07:27:18.571Z,2.20
2018-01-25T07:29:47.332Z,2.35
2018-01-25T07:32:15.337Z,2.67
2018-01-25T07:34:43.331Z,2.30
2018-01-25T07:37:11.323Z,3.70
2018-01-25T07:39:40.105Z,2.90
2018-01-25T07:42:08.108Z,2.05
2018-01-25T07:44:36.936Z,2.50
2018-01-25T07:47:04.967Z,2.30
2018-01-25T07:49:33.008Z,2.90
2018-01-25T07:52:01.035Z,3.25
2018-01-25T07:54:29.037Z,2.22
2018-01-25T07:56:57.036Z,3.35
2018-01-25T07:59:25.787Z,2.30
2018-01-25T08:01:53.783Z,2.83
2018-01-25T08:04:21.779Z,2.85
2018-01-25T08:06:49.767Z,2.95
2018-01-25T08:09:17.759Z,3.25
2018-01-25T08:11:46.528Z,2.83
2018-01-25T08:14:14.515Z,2.80
2018-01-25T08:16:48.259Z,3.60
2018-01-25T08:19:17.032Z,2.60
2018-01-25T08:21:45.020Z,2.70
2018-01-25T08:24:13.024Z,3.10
2018-01-25T08:26:41.023Z,3.67
2018-01-25T08:29:10.352Z,3.40
2018-01-25T08:31:38.328Z,2.65
2018-01-25T08:34:06.335Z,2.70
2018-01-25T08:36:34.324Z,2.50
2018-01-25T08:39:02.328Z,3.12
2018-01-25T08:41:33.156Z,3.08
2018-01-25T08:43:58.482Z,3.62
2018-01-25T08:46:26.483Z,2.85
2018-01-25T08:48:54.476Z,2.55
2018-01-25T08:51:23.241Z,2.70
2018-01-25T08:53:51.252Z,2.55
2018-01-25T08:56:19.260Z,2.65
2018-01-25T08:58:47.251Z,2.85
2018-01-25T09:01:15.252Z,3.12
2018-01-25T09:03:43.243Z,2.90
2018-01-25T09:06:11.240Z,3.37
2018-01-25T09:08:39.277Z,2.80
2018-01-25T09:11:07.300Z,2.78
2018-01-25T09:13:35.306Z,3.10
2018-01-25T09:16:03.296Z,2.87
2018-01-25T09:18:31.312Z,2.60
2018-01-25T09:20:59.291Z,2.75
2018-01-25T09:23:27.296Z,2.33
2018-01-25T09:25:55.312Z,3.00
2018-01-25T09:28:23.296Z,2.67
2018-01-25T09:30:51.303Z,3.17
2018-01-25T09:33:20.072Z,3.10
2018-01-25T09:35:48.058Z,3.72
2018-01-25T09:38:16.061Z,2.87
2018-01-25T09:40:44.072Z,3.28
2018-01-25T09:43:12.071Z,3.35
2018-01-25T09:45:40.072Z,3.67
2018-01-25T09:48:08.092Z,3.55
2018-01-25T09:50:36.854Z,3.45
2018-01-25T09:53:04.847Z,2.87
2018-01-25T09:55:32.872Z,2.95
2018-01-25T09:58:01.632Z,2.72
2018-01-25T10:00:29.640Z,3.40
2018-01-25T10:02:57.635Z,3.30
2018-01-25T10:05:26.400Z,4.03
2018-01-25T10:07:54.395Z,4.03
2018-01-25T10:10:22.400Z,3.67
2018-01-25T10:12:51.156Z,3.70
2018-01-25T10:15:19.169Z,3.12
2018-01-25T10:17:47.176Z,3.42
2018-01-25T10:20:15.163Z,3.30
2018-01-25T10:22:43.175Z,3.20
2018-01-25T10:25:11.187Z,3.53
2018-01-25T10:27:39.167Z,3.50
2018-01-25T10:30:07.207Z,2.58
2018-01-25T10:32:35.227Z,3.03
2018-01-25T10:35:03.248Z,3.12
2018-01-25T10:37:32.767Z,3.03
2018-01-25T10:40:01.572Z,3.15
2018-01-25T10:42:30.335Z,2.85
2018-01-25T10:44:58.756Z,2.70
2018-01-25T10:47:26.924Z,3.03
2018-01-25T10:49:54.916Z,3.55
2018-01-25T10:52:23.747Z,2.62
2018-01-25T10:54:51.700Z,2.90
2018-01-25T10:57:19.692Z,2.70
2018-01-25T10:59:48.455Z,3.33
2018-01-25T11:02:16.468Z,2.85
2018-01-25T11:04:44.468Z,2.70
2018-01-25T11:07:13.246Z,3.00
2018-01-25T11:09:41.252Z,3.00
2018-01-25T11:12:10.012Z,2.80
2018-01-25T11:14:38.032Z,2.60
2018-01-25T11:17:06.795Z,3.12
2018-01-25T11:19:34.788Z,3.05
2018-01-25T11:22:02.804Z,2.80
2018-01-25T11:24:30.830Z,3.00
2018-01-25T11:26:58.815Z,2.95
2018-01-25T11:29:26.821Z,2.92
2018-01-25T11:31:54.836Z,3.30
2018-01-25T11:34:22.824Z,2.45
2018-01-25T11:36:50.832Z,2.95
2018-01-25T11:39:18.848Z,3.30
2018-01-25T11:41:46.841Z,2.95
2018-01-25T11:44:15.611Z,2.95
2018-01-25T11:46:43.615Z,2.95
2018-01-25T11:49:11.616Z,2.50
2018-01-25T11:51:40.383Z,2.95
2018-01-25T11:54:08.397Z,3.30
2018-01-25T11:56:36.376Z,2.17
2018-01-25T11:59:05.152Z,2.72
2018-01-25T12:01:33.172Z,2.60
2018-01-25T12:04:01.932Z,2.75
2018-01-25T12:06:29.940Z,2.67
2018-01-25T12:08:58.719Z,2.90
2018-01-25T12:11:26.720Z,3.37
2018-01-25T12:13:54.723Z,2.22
2018-01-25T12:16:23.497Z,2.45
2018-01-25T12:18:51.484Z,2.85
2018-01-25T12:21:20.259Z,2.62
2018-01-25T12:23:48.266Z,2.87
2018-01-25T12:26:16.256Z,2.47
2018-01-25T12:28:45.040Z,2.95
2018-01-25T12:31:13.052Z,2.97
2018-01-25T12:33:41.815Z,2.65
2018-01-25T12:36:09.824Z,2.83
2018-01-25T12:38:38.599Z,2.80
2018-01-25T12:41:06.596Z,2.60
2018-01-25T12:43:34.600Z,2.78
2018-01-25T12:46:03.383Z,2.62
2018-01-25T12:48:31.392Z,2.97
2018-01-25T12:50:59.412Z,2.50
2018-01-25T12:53:27.432Z,2.83
2018-01-25T12:55:55.419Z,2.42
2018-01-25T12:58:24.187Z,2.50
2018-01-25T13:00:52.200Z,2.97
2018-01-25T13:03:21.770Z,2.50
2018-01-25T13:05:50.520Z,3.00
2018-01-25T13:08:18.521Z,2.90
2018-01-25T13:10:47.275Z,3.28
2018-01-25T13:13:15.281Z,4.00
2018-01-25T13:15:43.279Z,2.70
2018-01-25T13:18:11.272Z,3.33
2018-01-25T13:20:40.036Z,3.15
2018-01-25T13:23:08.072Z,2.87
2018-01-25T13:25:36.228Z,2.78
2018-01-25T13:28:05.008Z,2.65
2018-01-25T13:30:33.016Z,2.83
2018-01-25T13:33:07.397Z,2.85
2018-01-25T13:35:35.405Z,2.55
2018-01-25T13:38:03.387Z,2.65
2018-01-25T13:40:31.404Z,2.58
2018-01-25T13:43:00.175Z,2.62
2018-01-25T13:45:28.176Z,2.55
2018-01-25T13:47:56.959Z,3.10
2018-01-25T13:50:25.032Z,2.87
2018-01-25T13:52:53.075Z,2.72
2018-01-25T13:55:21.070Z,2.55
2018-01-25T13:57:51.989Z,2.50
2018-01-25T14:00:20.862Z,2.60
2018-01-25T14:02:48.867Z,3.08
2018-01-25T14:05:17.623Z,2.90
2018-01-25T14:07:45.644Z,2.40
2018-01-25T14:10:13.641Z,3.08
2018-01-25T14:12:42.415Z,3.20
2018-01-25T14:15:10.450Z,2.33
2018-01-25T14:17:38.484Z,2.90
2018-01-25T14:20:06.488Z,2.62
2018-01-25T14:22:35.265Z,2.65
2018-01-25T14:25:03.272Z,2.42
2018-01-25T14:27:32.043Z,3.60
2018-01-25T14:30:00.050Z,2.40
2018-01-25T14:32:28.817Z,2.00
2018-01-25T14:34:56.809Z,2.17
2018-01-25T14:37:25.579Z,2.05
2018-01-25T14:39:53.591Z,2.75
2018-01-25T14:42:21.595Z,3.10
2018-01-25T14:44:50.381Z,3.30
2018-01-25T14:47:19.904Z,2.70
2018-01-25T14:49:47.916Z,2.70
2018-01-25T14:52:16.684Z,2.58
2018-01-25T14:54:44.701Z,2.60
2018-01-25T14:57:12.691Z,2.80
2018-01-25T14:59:40.722Z,2.90
2018-01-25T15:02:08.753Z,3.03
2018-01-25T15:04:37.497Z,2.65
2018-01-25T15:07:05.507Z,2.85
2018-01-25T15:09:33.521Z,2.62
2018-01-25T15:12:01.516Z,3.17
2018-01-25T15:14:29.520Z,2.30
2018-01-25T15:16:57.526Z,3.03
2018-01-25T15:19:25.535Z,3.00
2018-01-25T15:21:54.311Z,2.97
2018-01-25T15:24:22.310Z,3.33
2018-01-25T15:26:51.071Z,2.85
2018-01-25T15:29:19.076Z,3.35
2018-01-25T15:31:47.079Z,3.45
2018-01-25T15:34:15.832Z,3.10
2018-01-25T15:36:43.839Z,2.83
2018-01-25T15:39:11.860Z,2.70
2018-01-25T15:41:39.852Z,3.55
2018-01-25T15:44:07.864Z,3.17
2018-01-25T15:46:35.863Z,3.45
2018-01-25T15:49:03.862Z,3.45
2018-01-25T15:51:33.393Z,3.40
2018-01-25T15:54:02.184Z,2.65
2018-01-25T15:56:30.200Z,3.42
2018-01-25T15:58:58.213Z,2.62
2018-01-25T16:01:26.220Z,3.35
2018-01-25T16:03:54.207Z,2.75
2018-01-25T16:06:22.203Z,3.22
2018-01-25T16:08:50.975Z,2.80
2018-01-25T16:11:18.963Z,3.70
2018-01-25T16:13:46.976Z,2.67
2018-01-25T16:16:15.743Z,3.40
2018-01-25T16:18:43.740Z,2.45
2018-01-25T16:21:11.752Z,3.12
2018-01-25T16:23:39.768Z,2.72
2018-01-25T16:26:07.760Z,3.10
2018-01-25T16:28:35.782Z,2.70
2018-01-25T16:31:03.800Z,3.65
2018-01-25T16:33:31.794Z,3.00
2018-01-25T16:35:59.797Z,3.70
2018-01-25T16:38:27.785Z,3.10
2018-01-25T16:40:55.771Z,3.20
2018-01-25T16:43:23.781Z,2.92
2018-01-25T16:45:52.548Z,3.08
2018-01-25T16:48:20.538Z,2.53
2018-01-25T16:50:48.552Z,2.70
2018-01-25T16:53:17.327Z,3.25
2018-01-25T16:55:45.315Z,3.50
2018-01-25T16:58:13.324Z,3.70
2018-01-25T17:00:42.101Z,3.10
2018-01-25T17:03:10.087Z,4.82
2018-01-25T17:05:38.087Z,3.67
2018-01-25T17:08:06.852Z,3.37
2018-01-25T17:10:34.847Z,3.83
2018-01-25T17:13:02.868Z,3.00
2018-01-25T17:15:30.865Z,3.42
2018-01-25T17:17:58.856Z,2.92
2018-01-25T17:20:26.864Z,2.90
2018-01-25T17:22:54.868Z,2.62
2018-01-25T17:25:23.632Z,2.92
2018-01-25T17:27:51.627Z,2.60
2018-01-25T17:30:19.659Z,2.28
2018-01-25T17:32:47.632Z,3.30
2018-01-25T17:35:16.409Z,2.47
2018-01-25T17:37:44.403Z,3.17
2018-01-25T17:40:13.165Z,4.15
2018-01-25T17:42:41.288Z,2.92
2018-01-25T17:45:10.064Z,3.15
2018-01-25T17:47:38.044Z,2.87
2018-01-25T17:50:06.052Z,2.60
2018-01-25T17:52:34.055Z,3.03
2018-01-25T17:55:02.868Z,2.70
2018-01-25T17:57:30.882Z,2.72
2018-01-25T17:59:58.896Z,3.08
2018-01-25T18:02:26.893Z,3.65
2018-01-25T18:04:54.893Z,2.40
2018-01-25T18:07:22.908Z,1.98
2018-01-25T18:09:50.909Z,2.62
2018-01-25T18:12:18.907Z,2.40
2018-01-25T18:14:46.917Z,2.50
2018-01-25T18:17:15.694Z,2.47
2018-01-25T18:19:43.679Z,3.87
2018-01-25T18:22:11.688Z,3.00
2018-01-25T18:24:39.692Z,2.40
2018-01-25T18:27:07.688Z,3.25
2018-01-25T18:29:35.744Z,3.70
2018-01-25T18:32:03.737Z,3.75
2018-01-25T18:34:31.775Z,3.83
2018-01-25T18:36:59.775Z,3.67
2018-01-25T18:39:28.532Z,3.67
2018-01-25T18:41:56.532Z,2.92
2018-01-25T18:44:24.571Z,3.47
2018-01-25T18:46:52.551Z,2.92
2018-01-25T18:49:20.556Z,2.65
2018-01-25T18:51:48.578Z,3.53
2018-01-25T18:54:16.576Z,2.85
2018-01-25T18:56:45.344Z,3.72
2018-01-25T18:59:13.340Z,3.55
2018-01-25T19:01:41.344Z,3.50
2018-01-25T19:04:10.165Z,3.75
2018-01-25T19:06:38.182Z,3.20
2018-01-25T19:09:06.168Z,4.53
2018-01-25T19:11:34.236Z,4.07
2018-01-25T19:14:02.315Z,3.90
2018-01-25T19:16:31.044Z,3.10
2018-01-25T19:18:59.029Z,3.75
2018-01-25T19:21:27.028Z,3.72
2018-01-25T19:23:55.776Z,3.45
2018-01-25T19:26:23.780Z,3.75
2018-01-25T19:28:51.780Z,3.85
2018-01-25T19:31:19.768Z,4.10
2018-01-25T19:33:47.764Z,3.95
2018-01-25T19:36:16.552Z,3.47
2018-01-25T19:38:44.549Z,3.75
2018-01-25T19:41:13.307Z,3.85
2018-01-25T19:43:41.324Z,3.53
2018-01-25T19:46:10.090Z,3.05
2018-01-25T19:48:38.071Z,3.45
2018-01-25T19:51:06.080Z,2.75
2018-01-25T19:53:34.088Z,3.03
2018-01-25T19:56:02.868Z,3.17
2018-01-25T19:58:30.864Z,3.42
2018-01-25T20:00:59.624Z,3.58
2018-01-25T20:03:27.644Z,3.45
2018-01-25T20:05:56.403Z,3.00
2018-01-25T20:08:24.395Z,3.30
2018-01-25T20:10:52.391Z,2.90
2018-01-25T20:13:20.424Z,2.78
2018-01-25T20:15:48.418Z,3.35
2018-01-25T20:18:16.413Z,3.12
2018-01-25T20:20:44.420Z,3.30
2018-01-25T20:23:12.497Z,3.53
2018-01-25T20:25:40.488Z,4.43
2018-01-25T20:28:08.548Z,3.03
2018-01-25T20:30:36.539Z,3.30
2018-01-25T20:33:04.551Z,3.20
2018-01-25T20:35:33.320Z,2.95
2018-01-25T20:38:01.316Z,3.83
2018-01-25T20:40:29.322Z,3.00
2018-01-25T20:42:58.084Z,3.85
2018-01-25T20:45:26.115Z,3.83
2018-01-25T20:47:55.065Z,3.05
2018-01-25T20:50:23.073Z,4.10
2018-01-25T20:52:51.748Z,3.83
2018-01-25T20:55:19.781Z,2.90
2018-01-25T20:57:47.745Z,3.33
2018-01-25T21:00:15.745Z,4.10
2018-01-25T21:02:44.514Z,3.95
2018-01-25T21:05:12.550Z,4.37
2018-01-25T21:07:40.561Z,4.68
2018-01-25T21:10:08.579Z,4.93
2018-01-25T21:12:37.373Z,3.80
2018-01-25T21:15:05.381Z,3.87
2018-01-25T21:17:33.367Z,3.55
2018-01-25T21:20:01.400Z,3.42
2018-01-25T21:22:29.388Z,4.25
2018-01-25T21:24:57.581Z,4.03
2018-01-25T21:27:25.766Z,4.75
2018-01-25T21:29:53.739Z,4.10
2018-01-25T21:32:22.175Z,3.25
2018-01-25T21:34:50.958Z,3.90
2018-01-25T21:37:18.944Z,4.35
2018-01-25T21:39:46.947Z,4.12
2018-01-25T21:42:15.718Z,4.03
2018-01-25T21:44:43.704Z,4.70
2018-01-25T21:47:11.833Z,4.60
2018-01-25T21:49:42.821Z,4.45
2018-01-25T21:52:11.633Z,3.72
2018-01-25T21:54:39.628Z,3.65
2018-01-25T21:57:07.651Z,4.10
2018-01-25T21:59:36.420Z,3.72
2018-01-25T22:02:04.429Z,4.95
2018-01-25T22:04:32.471Z,4.93
2018-01-25T22:07:00.482Z,3.92
2018-01-25T22:09:29.236Z,4.70
2018-01-25T22:11:57.220Z,4.60
2018-01-25T22:14:25.232Z,3.85
2018-01-25T22:16:53.215Z,3.92
2018-01-25T22:19:21.260Z,4.70
2018-01-25T22:21:49.252Z,3.90
2018-01-25T22:24:17.269Z,4.28
2018-01-25T22:26:45.244Z,4.53
2018-01-25T22:29:13.244Z,4.45
2018-01-25T22:31:42.004Z,4.10
2018-01-25T22:34:10.000Z,4.43
2018-01-25T22:36:39.505Z,4.55
2018-01-25T22:39:07.522Z,4.93
2018-01-25T22:41:35.512Z,3.60
2018-01-25T22:44:04.283Z,4.25
2018-01-25T22:46:32.308Z,3.50
2018-01-25T22:49:00.312Z,4.32
2018-01-25T22:51:28.327Z,4.18
2018-01-25T22:53:56.328Z,5.78
2018-01-25T22:56:24.319Z,5.75
2018-01-25T22:58:53.091Z,4.70
2018-01-25T23:01:21.091Z,4.32
2018-01-25T23:03:49.072Z,4.30
2018-01-25T23:06:17.071Z,4.47
2018-01-25T23:08:45.835Z,4.30
2018-01-25T23:11:13.824Z,3.90
2018-01-25T23:13:41.819Z,4.78
2018-01-25T23:16:09.824Z,4.40
2018-01-25T23:18:38.580Z,4.22
2018-01-25T23:21:06.587Z,5.07
2018-01-25T23:23:34.591Z,4.70
2018-01-25T23:26:03.370Z,3.87
2018-01-25T23:28:31.360Z,4.35
2018-01-25T23:30:59.368Z,4.20
2018-01-25T23:33:27.350Z,4.43
2018-01-25T23:35:55.355Z,3.95
2018-01-25T23:38:38.201Z,3.92
2018-01-25T23:41:06.204Z,3.72
2018-01-25T23:43:34.223Z,4.43
2018-01-25T23:46:02.970Z,4.75
2018-01-25T23:48:30.999Z,4.97
2018-01-25T23:50:59.776Z,4.10
2018-01-25T23:53:27.780Z,3.70
2018-01-25T23:55:56.546Z,4.60
2018-01-25T23:58:24.547Z,5.18
